sensor_id;sensor_type;location;lat;lon;timestamp;P1;durP1;ratioP1;P2;durP2;ratioP2
10343;SDS011;5217;43.960;10.954;2022-08-21T00:00:51;5.50;;;2.00;;
10343;SDS011;5217;43.960;10.954;2022-08-21T00:03:20;3.08;;;2.00;;
10343;SDS011;5217;43.960;10.954;2022-08-21T00:05:49;3.22;;;2.08;;
10343;SDS011;5217;43.960;10.954;2022-08-21T00:08:18;4.97;;;2.17;;
10343;SDS011;5217;43.960;10.954;2022-08-21T00:10:47;3.95;;;2.17;;
10343;SDS011;5217;43.960;10.954;2022-08-21T00:13:16;3.72;;;2.15;;
10343;SDS011;5217;43.960;10.954;2022-08-21T00:15:47;4.35;;;2.28;;
10343;SDS011;5217;43.960;10.954;2022-08-21T00:18:17;4.10;;;2.15;;
10343;SDS011;5217;43.960;10.954;2022-08-21T00:20:46;2.97;;;2.10;;
10343;SDS011;5217;43.960;10.954;2022-08-21T00:23:15;2.67;;;1.90;;
10343;SDS011;5217;43.960;10.954;2022-08-21T00:25:44;2.60;;;2.10;;
10343;SDS011;5217;43.960;10.954;2022-08-21T00:28:13;2.97;;;2.17;;
10343;SDS011;5217;43.960;10.954;2022-08-21T00:30:42;2.78;;;1.90;;
10343;SDS011;5217;43.960;10.954;2022-08-21T00:33:12;3.28;;;2.13;;
10343;SDS011;5217;43.960;10.954;2022-08-21T00:35:41;2.78;;;2.25;;
10343;SDS011;5217;43.960;10.954;2022-08-21T00:38:11;4.22;;;1.80;;
10343;SDS011;5217;43.960;10.954;2022-08-21T00:40:42;2.17;;;1.98;;
10343;SDS011;5217;43.960;10.954;2022-08-21T00:43:12;3.35;;;1.88;;
10343;SDS011;5217;43.960;10.954;2022-08-21T00:45:42;3.10;;;2.10;;
10343;SDS011;5217;43.960;10.954;2022-08-21T00:48:12;6.72;;;2.35;;
10343;SDS011;5217;43.960;10.954;2022-08-21T00:50:42;2.45;;;1.75;;
10343;SDS011;5217;43.960;10.954;2022-08-21T00:53:16;2.83;;;2.17;;
10343;SDS011;5217;43.960;10.954;2022-08-21T00:55:45;5.03;;;2.50;;
10343;SDS011;5217;43.960;10.954;2022-08-21T00:58:15;5.63;;;2.20;;
10343;SDS011;5217;43.960;10.954;2022-08-21T01:00:46;2.65;;;2.03;;
10343;SDS011;5217;43.960;10.954;2022-08-21T01:03:18;3.78;;;2.00;;
10343;SDS011;5217;43.960;10.954;2022-08-21T01:05:49;4.03;;;2.10;;
10343;SDS011;5217;43.960;10.954;2022-08-21T01:08:18;3.83;;;2.10;;
10343;SDS011;5217;43.960;10.954;2022-08-21T01:10:48;2.88;;;1.90;;
10343;SDS011;5217;43.960;10.954;2022-08-21T01:13:20;4.38;;;2.20;;
10343;SDS011;5217;43.960;10.954;2022-08-21T01:15:51;2.90;;;2.28;;
10343;SDS011;5217;43.960;10.954;2022-08-21T01:18:25;4.05;;;2.17;;
10343;SDS011;5217;43.960;10.954;2022-08-21T01:21:03;2.10;;;1.90;;
10343;SDS011;5217;43.960;10.954;2022-08-21T01:23:39;2.90;;;2.13;;
10343;SDS011;5217;43.960;10.954;2022-08-21T01:26:09;3.95;;;2.08;;
10343;SDS011;5217;43.960;10.954;2022-08-21T01:28:40;3.05;;;2.17;;
10343;SDS011;5217;43.960;10.954;2022-08-21T01:31:13;2.88;;;2.08;;
10343;SDS011;5217;43.960;10.954;2022-08-21T01:33:51;3.33;;;2.33;;
10343;SDS011;5217;43.960;10.954;2022-08-21T01:36:21;2.35;;;2.03;;
10343;SDS011;5217;43.960;10.954;2022-08-21T01:38:50;2.15;;;1.75;;
10343;SDS011;5217;43.960;10.954;2022-08-21T01:41:18;2.67;;;2.20;;
10343;SDS011;5217;43.960;10.954;2022-08-21T01:43:47;2.10;;;1.90;;
10343;SDS011;5217;43.960;10.954;2022-08-21T01:46:16;4.50;;;2.35;;
10343;SDS011;5217;43.960;10.954;2022-08-21T01:48:44;2.60;;;2.10;;
10343;SDS011;5217;43.960;10.954;2022-08-21T01:51:13;3.47;;;1.92;;
10343;SDS011;5217;43.960;10.954;2022-08-21T01:53:42;3.88;;;1.95;;
10343;SDS011;5217;43.960;10.954;2022-08-21T01:56:12;2.92;;;2.00;;
10343;SDS011;5217;43.960;10.954;2022-08-21T01:58:44;3.05;;;2.10;;
10343;SDS011;5217;43.960;10.954;2022-08-21T02:01:14;4.35;;;2.13;;
10343;SDS011;5217;43.960;10.954;2022-08-21T02:03:43;2.72;;;2.00;;
10343;SDS011;5217;43.960;10.954;2022-08-21T02:06:12;3.22;;;2.45;;
10343;SDS011;5217;43.960;10.954;2022-08-21T02:08:46;4.03;;;2.25;;
10343;SDS011;5217;43.960;10.954;2022-08-21T02:11:17;2.80;;;2.10;;
10343;SDS011;5217;43.960;10.954;2022-08-21T02:13:45;4.45;;;2.10;;
10343;SDS011;5217;43.960;10.954;2022-08-21T02:16:14;3.45;;;1.98;;
10343;SDS011;5217;43.960;10.954;2022-08-21T02:18:44;3.97;;;2.10;;
10343;SDS011;5217;43.960;10.954;2022-08-21T02:21:13;2.45;;;2.10;;
10343;SDS011;5217;43.960;10.954;2022-08-21T02:23:42;4.13;;;1.98;;
10343;SDS011;5217;43.960;10.954;2022-08-21T02:26:13;4.00;;;2.25;;
10343;SDS011;5217;43.960;10.954;2022-08-21T02:28:41;4.32;;;1.90;;
10343;SDS011;5217;43.960;10.954;2022-08-21T02:31:10;4.88;;;2.10;;
10343;SDS011;5217;43.960;10.954;2022-08-21T02:33:39;3.05;;;2.15;;
10343;SDS011;5217;43.960;10.954;2022-08-21T02:36:09;3.60;;;2.00;;
10343;SDS011;5217;43.960;10.954;2022-08-21T02:38:39;4.78;;;2.05;;
10343;SDS011;5217;43.960;10.954;2022-08-21T02:41:09;4.55;;;2.10;;
10343;SDS011;5217;43.960;10.954;2022-08-21T02:43:41;2.80;;;2.00;;
10343;SDS011;5217;43.960;10.954;2022-08-21T02:46:10;2.70;;;2.03;;
10343;SDS011;5217;43.960;10.954;2022-08-21T02:48:40;2.42;;;2.13;;
10343;SDS011;5217;43.960;10.954;2022-08-21T02:51:09;2.13;;;1.90;;
10343;SDS011;5217;43.960;10.954;2022-08-21T02:53:39;5.32;;;2.50;;
10343;SDS011;5217;43.960;10.954;2022-08-21T02:56:09;4.13;;;2.22;;
10343;SDS011;5217;43.960;10.954;2022-08-21T02:58:41;4.93;;;2.10;;
10343;SDS011;5217;43.960;10.954;2022-08-21T03:01:13;3.28;;;1.90;;
10343;SDS011;5217;43.960;10.954;2022-08-21T03:03:43;4.15;;;2.00;;
10343;SDS011;5217;43.960;10.954;2022-08-21T03:06:13;3.33;;;2.30;;
10343;SDS011;5217;43.960;10.954;2022-08-21T03:08:43;2.53;;;1.95;;
10343;SDS011;5217;43.960;10.954;2022-08-21T03:11:12;5.72;;;2.00;;
10343;SDS011;5217;43.960;10.954;2022-08-21T03:13:43;2.25;;;2.05;;
10343;SDS011;5217;43.960;10.954;2022-08-21T03:16:11;2.92;;;2.00;;
10343;SDS011;5217;43.960;10.954;2022-08-21T03:18:41;3.20;;;2.10;;
10343;SDS011;5217;43.960;10.954;2022-08-21T03:21:09;4.22;;;2.08;;
10343;SDS011;5217;43.960;10.954;2022-08-21T03:23:39;4.95;;;2.38;;
10343;SDS011;5217;43.960;10.954;2022-08-21T03:26:09;3.15;;;2.08;;
10343;SDS011;5217;43.960;10.954;2022-08-21T03:28:38;3.45;;;2.08;;
10343;SDS011;5217;43.960;10.954;2022-08-21T03:31:07;2.42;;;1.92;;
10343;SDS011;5217;43.960;10.954;2022-08-21T03:33:36;2.10;;;1.83;;
10343;SDS011;5217;43.960;10.954;2022-08-21T03:36:05;3.20;;;2.15;;
10343;SDS011;5217;43.960;10.954;2022-08-21T03:38:36;2.40;;;2.20;;
10343;SDS011;5217;43.960;10.954;2022-08-21T03:41:05;2.92;;;2.20;;
10343;SDS011;5217;43.960;10.954;2022-08-21T03:43:35;3.90;;;1.88;;
10343;SDS011;5217;43.960;10.954;2022-08-21T03:46:05;2.80;;;2.00;;
10343;SDS011;5217;43.960;10.954;2022-08-21T03:48:35;2.42;;;2.15;;
10343;SDS011;5217;43.960;10.954;2022-08-21T03:51:04;3.20;;;2.10;;
10343;SDS011;5217;43.960;10.954;2022-08-21T03:53:33;2.80;;;2.03;;
10343;SDS011;5217;43.960;10.954;2022-08-21T03:56:03;3.90;;;2.00;;
10343;SDS011;5217;43.960;10.954;2022-08-21T03:58:32;2.83;;;2.10;;
10343;SDS011;5217;43.960;10.954;2022-08-21T04:01:01;4.20;;;2.45;;
10343;SDS011;5217;43.960;10.954;2022-08-21T04:03:33;2.97;;;2.10;;
10343;SDS011;5217;43.960;10.954;2022-08-21T04:06:03;2.85;;;2.10;;
10343;SDS011;5217;43.960;10.954;2022-08-21T04:08:32;3.67;;;2.10;;
10343;SDS011;5217;43.960;10.954;2022-08-21T04:11:01;2.00;;;1.80;;
10343;SDS011;5217;43.960;10.954;2022-08-21T04:13:30;3.05;;;2.15;;
10343;SDS011;5217;43.960;10.954;2022-08-21T04:15:58;3.70;;;2.15;;
10343;SDS011;5217;43.960;10.954;2022-08-21T04:18:26;2.67;;;2.10;;
10343;SDS011;5217;43.960;10.954;2022-08-21T04:20:56;2.28;;;2.08;;
10343;SDS011;5217;43.960;10.954;2022-08-21T04:23:27;4.45;;;2.40;;
10343;SDS011;5217;43.960;10.954;2022-08-21T04:25:56;5.53;;;2.30;;
10343;SDS011;5217;43.960;10.954;2022-08-21T04:28:25;4.03;;;2.42;;
10343;SDS011;5217;43.960;10.954;2022-08-21T04:30:56;2.65;;;2.30;;
10343;SDS011;5217;43.960;10.954;2022-08-21T04:33:25;3.45;;;2.50;;
10343;SDS011;5217;43.960;10.954;2022-08-21T04:35:53;3.05;;;2.50;;
10343;SDS011;5217;43.960;10.954;2022-08-21T04:38:23;3.92;;;2.42;;
10343;SDS011;5217;43.960;10.954;2022-08-21T04:41:02;3.13;;;2.33;;
10343;SDS011;5217;43.960;10.954;2022-08-21T04:43:31;2.83;;;2.47;;
10343;SDS011;5217;43.960;10.954;2022-08-21T04:45:59;4.80;;;2.47;;
10343;SDS011;5217;43.960;10.954;2022-08-21T04:48:28;5.50;;;2.50;;
10343;SDS011;5217;43.960;10.954;2022-08-21T04:50:57;4.82;;;2.60;;
10343;SDS011;5217;43.960;10.954;2022-08-21T04:53:31;4.03;;;2.47;;
10343;SDS011;5217;43.960;10.954;2022-08-21T04:56:05;2.95;;;2.40;;
10343;SDS011;5217;43.960;10.954;2022-08-21T04:58:39;4.78;;;2.83;;
10343;SDS011;5217;43.960;10.954;2022-08-21T05:01:09;3.03;;;2.70;;
10343;SDS011;5217;43.960;10.954;2022-08-21T05:03:47;4.70;;;2.92;;
10343;SDS011;5217;43.960;10.954;2022-08-21T05:06:18;2.90;;;2.65;;
10343;SDS011;5217;43.960;10.954;2022-08-21T05:08:49;3.78;;;2.60;;
10343;SDS011;5217;43.960;10.954;2022-08-21T05:11:27;5.47;;;2.75;;
10343;SDS011;5217;43.960;10.954;2022-08-21T05:13:57;5.07;;;2.78;;
10343;SDS011;5217;43.960;10.954;2022-08-21T05:16:25;2.80;;;2.55;;
10343;SDS011;5217;43.960;10.954;2022-08-21T05:19:03;2.88;;;2.58;;
10343;SDS011;5217;43.960;10.954;2022-08-21T05:21:31;2.80;;;2.60;;
10343;SDS011;5217;43.960;10.954;2022-08-21T05:24:02;3.45;;;2.90;;
10343;SDS011;5217;43.960;10.954;2022-08-21T05:26:30;4.03;;;3.05;;
10343;SDS011;5217;43.960;10.954;2022-08-21T05:29:10;4.75;;;2.58;;
10343;SDS011;5217;43.960;10.954;2022-08-21T05:31:40;4.32;;;2.97;;
10343;SDS011;5217;43.960;10.954;2022-08-21T05:34:08;5.25;;;2.97;;
10343;SDS011;5217;43.960;10.954;2022-08-21T05:36:41;4.82;;;2.72;;
10343;SDS011;5217;43.960;10.954;2022-08-21T05:39:11;4.38;;;2.65;;
10343;SDS011;5217;43.960;10.954;2022-08-21T05:41:40;2.80;;;2.50;;
10343;SDS011;5217;43.960;10.954;2022-08-21T05:44:08;2.95;;;2.35;;
10343;SDS011;5217;43.960;10.954;2022-08-21T05:46:37;4.78;;;2.40;;
10343;SDS011;5217;43.960;10.954;2022-08-21T05:49:06;3.25;;;2.63;;
10343;SDS011;5217;43.960;10.954;2022-08-21T05:51:34;3.42;;;2.80;;
10343;SDS011;5217;43.960;10.954;2022-08-21T05:54:03;3.20;;;2.30;;
10343;SDS011;5217;43.960;10.954;2022-08-21T05:56:33;4.43;;;2.92;;
10343;SDS011;5217;43.960;10.954;2022-08-21T05:59:02;2.78;;;2.58;;
10343;SDS011;5217;43.960;10.954;2022-08-21T06:01:34;3.30;;;2.63;;
10343;SDS011;5217;43.960;10.954;2022-08-21T06:04:03;3.33;;;2.92;;
10343;SDS011;5217;43.960;10.954;2022-08-21T06:06:32;5.25;;;2.75;;
10343;SDS011;5217;43.960;10.954;2022-08-21T06:09:00;4.28;;;3.15;;
10343;SDS011;5217;43.960;10.954;2022-08-21T06:11:30;3.35;;;3.00;;
10343;SDS011;5217;43.960;10.954;2022-08-21T06:14:00;6.55;;;3.40;;
10343;SDS011;5217;43.960;10.954;2022-08-21T06:16:29;3.88;;;3.13;;
10343;SDS011;5217;43.960;10.954;2022-08-21T06:18:57;4.07;;;3.10;;
10343;SDS011;5217;43.960;10.954;2022-08-21T06:21:28;3.85;;;3.03;;
10343;SDS011;5217;43.960;10.954;2022-08-21T06:23:57;3.75;;;2.92;;
10343;SDS011;5217;43.960;10.954;2022-08-21T06:26:25;8.18;;;3.08;;
10343;SDS011;5217;43.960;10.954;2022-08-21T06:28:54;4.50;;;2.92;;
10343;SDS011;5217;43.960;10.954;2022-08-21T06:31:25;4.70;;;3.25;;
10343;SDS011;5217;43.960;10.954;2022-08-21T06:33:55;5.28;;;3.38;;
10343;SDS011;5217;43.960;10.954;2022-08-21T06:36:24;5.10;;;3.15;;
10343;SDS011;5217;43.960;10.954;2022-08-21T06:38:52;3.53;;;2.95;;
10343;SDS011;5217;43.960;10.954;2022-08-21T06:41:23;5.88;;;3.20;;
10343;SDS011;5217;43.960;10.954;2022-08-21T06:43:52;5.10;;;3.28;;
10343;SDS011;5217;43.960;10.954;2022-08-21T06:46:21;5.22;;;3.50;;
10343;SDS011;5217;43.960;10.954;2022-08-21T06:48:51;4.80;;;3.28;;
10343;SDS011;5217;43.960;10.954;2022-08-21T06:51:19;5.65;;;3.63;;
10343;SDS011;5217;43.960;10.954;2022-08-21T06:53:48;4.43;;;3.13;;
10343;SDS011;5217;43.960;10.954;2022-08-21T06:56:16;5.07;;;3.00;;
10343;SDS011;5217;43.960;10.954;2022-08-21T06:58:45;4.07;;;3.17;;
10343;SDS011;5217;43.960;10.954;2022-08-21T07:01:14;4.07;;;3.13;;
10343;SDS011;5217;43.960;10.954;2022-08-21T07:03:42;4.93;;;3.40;;
10343;SDS011;5217;43.960;10.954;2022-08-21T07:06:12;3.90;;;3.33;;
10343;SDS011;5217;43.960;10.954;2022-08-21T07:08:41;4.28;;;3.30;;
10343;SDS011;5217;43.960;10.954;2022-08-21T07:11:11;3.75;;;3.33;;
10343;SDS011;5217;43.960;10.954;2022-08-21T07:13:44;4.10;;;3.03;;
10343;SDS011;5217;43.960;10.954;2022-08-21T07:16:13;5.32;;;4.07;;
10343;SDS011;5217;43.960;10.954;2022-08-21T07:18:42;5.65;;;4.28;;
10343;SDS011;5217;43.960;10.954;2022-08-21T07:21:10;5.55;;;4.20;;
10343;SDS011;5217;43.960;10.954;2022-08-21T07:23:41;4.38;;;3.85;;
10343;SDS011;5217;43.960;10.954;2022-08-21T07:26:11;7.90;;;4.32;;
10343;SDS011;5217;43.960;10.954;2022-08-21T07:28:40;5.40;;;4.03;;
10343;SDS011;5217;43.960;10.954;2022-08-21T07:31:09;7.47;;;4.45;;
10343;SDS011;5217;43.960;10.954;2022-08-21T07:33:40;5.22;;;4.05;;
10343;SDS011;5217;43.960;10.954;2022-08-21T07:36:09;5.07;;;3.78;;
10343;SDS011;5217;43.960;10.954;2022-08-21T07:38:40;6.43;;;3.97;;
10343;SDS011;5217;43.960;10.954;2022-08-21T07:41:11;5.53;;;4.07;;
10343;SDS011;5217;43.960;10.954;2022-08-21T07:43:42;4.55;;;3.53;;
10343;SDS011;5217;43.960;10.954;2022-08-21T07:46:11;5.38;;;3.88;;
10343;SDS011;5217;43.960;10.954;2022-08-21T07:48:40;4.85;;;3.78;;
10343;SDS011;5217;43.960;10.954;2022-08-21T07:51:10;3.85;;;3.53;;
10343;SDS011;5217;43.960;10.954;2022-08-21T07:53:42;6.35;;;4.10;;
10343;SDS011;5217;43.960;10.954;2022-08-21T07:56:14;4.47;;;4.05;;
10343;SDS011;5217;43.960;10.954;2022-08-21T07:58:43;7.05;;;4.05;;
10343;SDS011;5217;43.960;10.954;2022-08-21T08:01:11;4.65;;;3.90;;
10343;SDS011;5217;43.960;10.954;2022-08-21T08:03:40;5.03;;;3.83;;
10343;SDS011;5217;43.960;10.954;2022-08-21T08:06:09;4.35;;;3.58;;
10343;SDS011;5217;43.960;10.954;2022-08-21T08:08:38;4.13;;;3.72;;
10343;SDS011;5217;43.960;10.954;2022-08-21T08:11:09;5.45;;;4.00;;
10343;SDS011;5217;43.960;10.954;2022-08-21T08:13:43;7.53;;;3.90;;
10343;SDS011;5217;43.960;10.954;2022-08-21T08:16:13;5.18;;;3.85;;
10343;SDS011;5217;43.960;10.954;2022-08-21T08:18:42;5.38;;;3.78;;
10343;SDS011;5217;43.960;10.954;2022-08-21T08:21:11;3.92;;;3.25;;
10343;SDS011;5217;43.960;10.954;2022-08-21T08:23:40;5.93;;;3.65;;
10343;SDS011;5217;43.960;10.954;2022-08-21T08:26:12;5.32;;;3.47;;
10343;SDS011;5217;43.960;10.954;2022-08-21T08:28:42;4.07;;;3.40;;
10343;SDS011;5217;43.960;10.954;2022-08-21T08:31:10;5.20;;;3.35;;
10343;SDS011;5217;43.960;10.954;2022-08-21T08:33:39;6.28;;;3.80;;
10343;SDS011;5217;43.960;10.954;2022-08-21T08:36:12;3.90;;;3.50;;
10343;SDS011;5217;43.960;10.954;2022-08-21T08:38:41;7.82;;;3.80;;
10343;SDS011;5217;43.960;10.954;2022-08-21T08:41:11;3.47;;;3.17;;
10343;SDS011;5217;43.960;10.954;2022-08-21T08:43:44;4.32;;;3.33;;
10343;SDS011;5217;43.960;10.954;2022-08-21T08:46:19;5.07;;;3.95;;
10343;SDS011;5217;43.960;10.954;2022-08-21T08:48:53;7.60;;;3.80;;
10343;SDS011;5217;43.960;10.954;2022-08-21T08:51:30;3.78;;;3.15;;
10343;SDS011;5217;43.960;10.954;2022-08-21T08:54:07;4.15;;;3.13;;
10343;SDS011;5217;43.960;10.954;2022-08-21T08:56:40;6.68;;;3.25;;
10343;SDS011;5217;43.960;10.954;2022-08-21T08:59:18;4.32;;;3.55;;
10343;SDS011;5217;43.960;10.954;2022-08-21T09:01:50;4.05;;;3.15;;
10343;SDS011;5217;43.960;10.954;2022-08-21T09:04:20;5.50;;;3.50;;
10343;SDS011;5217;43.960;10.954;2022-08-21T09:07:01;5.05;;;3.40;;
10343;SDS011;5217;43.960;10.954;2022-08-21T09:09:42;4.63;;;3.00;;
10343;SDS011;5217;43.960;10.954;2022-08-21T09:12:29;3.47;;;3.10;;
10343;SDS011;5217;43.960;10.954;2022-08-21T09:15:06;4.30;;;2.90;;
10343;SDS011;5217;43.960;10.954;2022-08-21T09:17:52;4.35;;;2.95;;
10343;SDS011;5217;43.960;10.954;2022-08-21T09:20:45;5.18;;;3.58;;
10343;SDS011;5217;43.960;10.954;2022-08-21T09:23:25;6.43;;;3.60;;
10343;SDS011;5217;43.960;10.954;2022-08-21T09:26:02;4.80;;;3.00;;
10343;SDS011;5217;43.960;10.954;2022-08-21T09:28:40;6.15;;;3.17;;
10343;SDS011;5217;43.960;10.954;2022-08-21T09:31:11;4.55;;;3.17;;
10343;SDS011;5217;43.960;10.954;2022-08-21T09:33:58;5.50;;;3.70;;
10343;SDS011;5217;43.960;10.954;2022-08-21T09:36:31;4.53;;;3.17;;
10343;SDS011;5217;43.960;10.954;2022-08-21T09:39:04;3.83;;;2.90;;
10343;SDS011;5217;43.960;10.954;2022-08-21T09:41:33;4.10;;;3.15;;
10343;SDS011;5217;43.960;10.954;2022-08-21T09:44:07;4.53;;;3.45;;
10343;SDS011;5217;43.960;10.954;2022-08-21T09:46:36;4.55;;;3.63;;
10343;SDS011;5217;43.960;10.954;2022-08-21T09:49:04;3.90;;;3.22;;
10343;SDS011;5217;43.960;10.954;2022-08-21T09:51:48;4.45;;;3.17;;
10343;SDS011;5217;43.960;10.954;2022-08-21T09:54:20;5.45;;;3.58;;
10343;SDS011;5217;43.960;10.954;2022-08-21T09:56:55;3.45;;;3.17;;
10343;SDS011;5217;43.960;10.954;2022-08-21T09:59:44;3.95;;;3.20;;
10343;SDS011;5217;43.960;10.954;2022-08-21T10:02:21;3.55;;;2.80;;
10343;SDS011;5217;43.960;10.954;2022-08-21T10:04:53;4.35;;;3.40;;
10343;SDS011;5217;43.960;10.954;2022-08-21T10:07:23;3.55;;;3.10;;
10343;SDS011;5217;43.960;10.954;2022-08-21T10:09:59;3.30;;;3.00;;
10343;SDS011;5217;43.960;10.954;2022-08-21T10:12:33;3.13;;;2.83;;
10343;SDS011;5217;43.960;10.954;2022-08-21T10:15:12;5.05;;;3.28;;
10343;SDS011;5217;43.960;10.954;2022-08-21T10:17:49;3.65;;;3.00;;
10343;SDS011;5217;43.960;10.954;2022-08-21T10:20:25;4.65;;;2.92;;
10343;SDS011;5217;43.960;10.954;2022-08-21T10:23:02;3.55;;;3.13;;
10343;SDS011;5217;43.960;10.954;2022-08-21T10:25:40;3.28;;;3.03;;
10343;SDS011;5217;43.960;10.954;2022-08-21T10:28:32;4.55;;;2.60;;
10343;SDS011;5217;43.960;10.954;2022-08-21T10:31:10;4.47;;;2.40;;
10343;SDS011;5217;43.960;10.954;2022-08-21T10:33:46;2.50;;;2.08;;
10343;SDS011;5217;43.960;10.954;2022-08-21T10:36:25;3.65;;;2.38;;
10343;SDS011;5217;43.960;10.954;2022-08-21T10:39:03;3.03;;;2.30;;
10343;SDS011;5217;43.960;10.954;2022-08-21T10:42:07;2.45;;;2.25;;
10343;SDS011;5217;43.960;10.954;2022-08-21T10:44:57;2.35;;;2.17;;
10343;SDS011;5217;43.960;10.954;2022-08-21T10:47:41;3.58;;;2.28;;
10343;SDS011;5217;43.960;10.954;2022-08-21T10:50:17;2.60;;;2.15;;
10343;SDS011;5217;43.960;10.954;2022-08-21T10:52:57;2.65;;;2.45;;
10343;SDS011;5217;43.960;10.954;2022-08-21T10:55:40;2.75;;;2.45;;
10343;SDS011;5217;43.960;10.954;2022-08-21T10:58:13;4.95;;;2.83;;
10343;SDS011;5217;43.960;10.954;2022-08-21T11:00:47;2.60;;;2.40;;
10343;SDS011;5217;43.960;10.954;2022-08-21T11:03:21;3.30;;;2.70;;
10343;SDS011;5217;43.960;10.954;2022-08-21T11:05:54;3.25;;;2.60;;
10343;SDS011;5217;43.960;10.954;2022-08-21T11:08:28;3.90;;;2.92;;
10343;SDS011;5217;43.960;10.954;2022-08-21T11:11:03;2.40;;;2.20;;
10343;SDS011;5217;43.960;10.954;2022-08-21T11:13:37;3.28;;;2.60;;
10343;SDS011;5217;43.960;10.954;2022-08-21T11:16:12;2.67;;;2.40;;
10343;SDS011;5217;43.960;10.954;2022-08-21T11:18:49;4.00;;;2.70;;
10343;SDS011;5217;43.960;10.954;2022-08-21T11:21:32;3.30;;;2.40;;
10343;SDS011;5217;43.960;10.954;2022-08-21T11:24:17;4.43;;;2.83;;
10343;SDS011;5217;43.960;10.954;2022-08-21T11:26:57;6.18;;;2.58;;
10343;SDS011;5217;43.960;10.954;2022-08-21T11:29:29;2.45;;;2.20;;
10343;SDS011;5217;43.960;10.954;2022-08-21T11:32:07;3.65;;;2.20;;
10343;SDS011;5217;43.960;10.954;2022-08-21T11:34:54;4.38;;;2.80;;
10343;SDS011;5217;43.960;10.954;2022-08-21T11:37:33;6.93;;;3.08;;
10343;SDS011;5217;43.960;10.954;2022-08-21T11:40:27;3.63;;;2.70;;
10343;SDS011;5217;43.960;10.954;2022-08-21T11:43:07;5.25;;;3.30;;
10343;SDS011;5217;43.960;10.954;2022-08-21T11:45:43;3.72;;;3.38;;
10343;SDS011;5217;43.960;10.954;2022-08-21T11:48:27;5.28;;;3.15;;
10343;SDS011;5217;43.960;10.954;2022-08-21T11:51:07;4.22;;;3.13;;
10343;SDS011;5217;43.960;10.954;2022-08-21T11:53:45;3.85;;;2.70;;
10343;SDS011;5217;43.960;10.954;2022-08-21T11:56:20;2.65;;;2.40;;
10343;SDS011;5217;43.960;10.954;2022-08-21T11:58:53;3.03;;;2.60;;
10343;SDS011;5217;43.960;10.954;2022-08-21T12:01:27;3.13;;;2.67;;
10343;SDS011;5217;43.960;10.954;2022-08-21T12:04:01;2.92;;;2.45;;
10343;SDS011;5217;43.960;10.954;2022-08-21T12:06:34;3.63;;;2.45;;
10343;SDS011;5217;43.960;10.954;2022-08-21T12:09:05;3.38;;;2.63;;
10343;SDS011;5217;43.960;10.954;2022-08-21T12:11:45;3.17;;;2.33;;
10343;SDS011;5217;43.960;10.954;2022-08-21T12:14:15;2.65;;;2.20;;
10343;SDS011;5217;43.960;10.954;2022-08-21T12:16:46;2.97;;;2.40;;
10343;SDS011;5217;43.960;10.954;2022-08-21T12:19:27;2.38;;;2.17;;
10343;SDS011;5217;43.960;10.954;2022-08-21T12:22:00;3.10;;;2.30;;
10343;SDS011;5217;43.960;10.954;2022-08-21T12:24:38;2.42;;;2.10;;
10343;SDS011;5217;43.960;10.954;2022-08-21T12:29:59;3.08;;;2.00;;
10343;SDS011;5217;43.960;10.954;2022-08-21T12:32:29;2.42;;;2.10;;
10343;SDS011;5217;43.960;10.954;2022-08-21T12:35:01;2.83;;;2.10;;
10343;SDS011;5217;43.960;10.954;2022-08-21T12:37:51;1.88;;;1.77;;
10343;SDS011;5217;43.960;10.954;2022-08-21T12:40:32;3.10;;;1.70;;
10343;SDS011;5217;43.960;10.954;2022-08-21T12:43:11;2.80;;;1.88;;
10343;SDS011;5217;43.960;10.954;2022-08-21T12:45:44;2.10;;;1.85;;
10343;SDS011;5217;43.960;10.954;2022-08-21T12:48:15;2.45;;;2.03;;
10343;SDS011;5217;43.960;10.954;2022-08-21T12:50:51;2.75;;;1.92;;
10343;SDS011;5217;43.960;10.954;2022-08-21T12:53:29;3.47;;;1.83;;
10343;SDS011;5217;43.960;10.954;2022-08-21T12:56:03;2.20;;;2.00;;
10343;SDS011;5217;43.960;10.954;2022-08-21T12:58:36;1.95;;;1.80;;
10343;SDS011;5217;43.960;10.954;2022-08-21T13:01:11;3.20;;;1.88;;
10343;SDS011;5217;43.960;10.954;2022-08-21T13:03:47;2.63;;;1.85;;
10343;SDS011;5217;43.960;10.954;2022-08-21T13:06:32;2.50;;;1.92;;
10343;SDS011;5217;43.960;10.954;2022-08-21T13:09:07;1.85;;;1.75;;
10343;SDS011;5217;43.960;10.954;2022-08-21T13:11:39;1.60;;;1.50;;
10343;SDS011;5217;43.960;10.954;2022-08-21T13:14:10;2.28;;;1.60;;
10343;SDS011;5217;43.960;10.954;2022-08-21T13:16:53;1.90;;;1.80;;
10343;SDS011;5217;43.960;10.954;2022-08-21T13:19:22;1.92;;;1.65;;
10343;SDS011;5217;43.960;10.954;2022-08-21T13:21:52;1.80;;;1.70;;
10343;SDS011;5217;43.960;10.954;2022-08-21T13:24:24;2.92;;;1.80;;
10343;SDS011;5217;43.960;10.954;2022-08-21T13:27:17;2.38;;;1.85;;
10343;SDS011;5217;43.960;10.954;2022-08-21T13:29:47;2.42;;;1.90;;
10343;SDS011;5217;43.960;10.954;2022-08-21T13:32:20;2.00;;;1.80;;
10343;SDS011;5217;43.960;10.954;2022-08-21T13:34:51;3.05;;;1.60;;
10343;SDS011;5217;43.960;10.954;2022-08-21T13:37:20;2.22;;;2.03;;
10343;SDS011;5217;43.960;10.954;2022-08-21T13:39:52;3.45;;;2.17;;
10343;SDS011;5217;43.960;10.954;2022-08-21T13:42:20;2.55;;;2.22;;
10343;SDS011;5217;43.960;10.954;2022-08-21T13:44:50;2.78;;;1.92;;
10343;SDS011;5217;43.960;10.954;2022-08-21T13:47:21;2.00;;;1.80;;
10343;SDS011;5217;43.960;10.954;2022-08-21T13:49:51;1.90;;;1.70;;
10343;SDS011;5217;43.960;10.954;2022-08-21T13:52:25;2.25;;;1.88;;
10343;SDS011;5217;43.960;10.954;2022-08-21T13:54:57;1.90;;;1.80;;
10343;SDS011;5217;43.960;10.954;2022-08-21T13:57:27;1.70;;;1.60;;
10343;SDS011;5217;43.960;10.954;2022-08-21T14:00:10;1.73;;;1.40;;
10343;SDS011;5217;43.960;10.954;2022-08-21T14:02:46;1.65;;;1.55;;
10343;SDS011;5217;43.960;10.954;2022-08-21T14:05:19;1.60;;;1.50;;
10343;SDS011;5217;43.960;10.954;2022-08-21T14:07:50;1.92;;;1.60;;
10343;SDS011;5217;43.960;10.954;2022-08-21T14:10:25;1.50;;;1.40;;
10343;SDS011;5217;43.960;10.954;2022-08-21T14:12:55;1.63;;;1.50;;
10343;SDS011;5217;43.960;10.954;2022-08-21T14:15:27;1.63;;;1.52;;
10343;SDS011;5217;43.960;10.954;2022-08-21T14:18:06;1.52;;;1.42;;
10343;SDS011;5217;43.960;10.954;2022-08-21T14:20:35;1.80;;;1.50;;
10343;SDS011;5217;43.960;10.954;2022-08-21T14:23:04;1.60;;;1.50;;
10343;SDS011;5217;43.960;10.954;2022-08-21T14:25:38;2.03;;;1.50;;
10343;SDS011;5217;43.960;10.954;2022-08-21T14:28:15;2.10;;;1.48;;
10343;SDS011;5217;43.960;10.954;2022-08-21T14:30:54;5.22;;;1.50;;
10343;SDS011;5217;43.960;10.954;2022-08-21T14:33:25;2.95;;;1.77;;
10343;SDS011;5217;43.960;10.954;2022-08-21T14:35:55;2.08;;;1.80;;
10343;SDS011;5217;43.960;10.954;2022-08-21T14:38:25;1.98;;;1.83;;
10343;SDS011;5217;43.960;10.954;2022-08-21T14:40:57;3.67;;;1.95;;
10343;SDS011;5217;43.960;10.954;2022-08-21T14:43:31;3.65;;;2.30;;
10343;SDS011;5217;43.960;10.954;2022-08-21T14:45:59;5.47;;;2.42;;
10343;SDS011;5217;43.960;10.954;2022-08-21T14:48:28;2.47;;;2.15;;
10343;SDS011;5217;43.960;10.954;2022-08-21T14:50:57;4.40;;;2.10;;
10343;SDS011;5217;43.960;10.954;2022-08-21T14:53:26;4.25;;;2.70;;
10343;SDS011;5217;43.960;10.954;2022-08-21T14:55:54;3.22;;;2.28;;
10343;SDS011;5217;43.960;10.954;2022-08-21T14:58:33;2.45;;;2.17;;
10343;SDS011;5217;43.960;10.954;2022-08-21T15:01:05;2.45;;;1.90;;
10343;SDS011;5217;43.960;10.954;2022-08-21T15:03:34;3.35;;;2.15;;
10343;SDS011;5217;43.960;10.954;2022-08-21T15:06:04;3.65;;;2.10;;
10343;SDS011;5217;43.960;10.954;2022-08-21T15:08:33;2.20;;;2.00;;
10343;SDS011;5217;43.960;10.954;2022-08-21T15:11:04;3.97;;;2.60;;
10343;SDS011;5217;43.960;10.954;2022-08-21T15:13:39;3.08;;;2.20;;
10343;SDS011;5217;43.960;10.954;2022-08-21T15:16:08;2.47;;;2.28;;
10343;SDS011;5217;43.960;10.954;2022-08-21T15:18:39;2.28;;;1.88;;
10343;SDS011;5217;43.960;10.954;2022-08-21T15:21:08;5.00;;;2.25;;